Terminal Aerodrome Forecast
Issued by NWS Knoxville/Tri Cities, TN

Home | Current Version | Previous Version | Text Only | Print | Product List | Glossary On
Versions: 1 2 3 4 5 6 7 8 9 10 11 12 13 14 15 16 17 18 19 20 21 22 23
000
FTUS44 KMRX 230525
TAFTRI
TAF
KTRI 230525Z 2306/2406 00000KT 1/4SM FG VV001
     FM231300 00000KT 1/2SM FG OVC001
     FM231400 00000KT 2SM BR OVC006
     FM231600 VRB02KT 5SM BR OVC050
     FM231800 19004KT P6SM BKN050
     FM240000 00000KT 6SM BR BKN050=

USA.gov is the U.S. government's official web portal to all federal, state and local government web resources and services.